CWPX

Cape Peel West Airport

Canada
METAR CWPX 201100Z AUTO 25006KT ////SM //// NCD M29/M33 A3030
Observed Flight Rules
Nov-20 @ 11:00 UTC (37 minutes ago)
Wind Clouds
250° at 6 knots
  • Clear skies
Temperatures Readings
Current -29°C / -20°F
Dewpoint -33°C / -27°F
Humidity 68%
Altimeter 30.3" Hg
Pressure 1026 hPa
Elevation 165
METAR CWPX 201100Z AUTO 25006KT ////SM //// NCD M29/M33 A3030
Observed Flight Rules
Nov-20 @ 11:00 UTC
(37 minutes ago)
Wind
250° at 6 knots
Clouds
  • Clear skies
Temperature Dewpoint
-29°C / -20°F -33°C / -27°F
Humidity Altimeter Pressure
68% 30.3" Hg 1026 hPa